• Join FlightAware (Why Join?)
  • Login
  • US Flag 
Rudolph Flight #1: Arrived! 
03:26PM EST


 

Airport Tracker/Info


-or-


 

Live Flight TrackerFlight Track Log ✈ AWE1092 ✈ 23-Apr-2013 ✈ KMHT - KPHL

Flight Track Log - Related Links

Times and Time Zones

All times are in EDT time to prevent confusion due to time zone crossing. See the AWE1092 flight status page for this flight to view local times or setup timezone preferences in your user account.

Time Position Orientation Groundspeed Altitude Reporting Facility
EDT Latitude Longitude Course Direction KTS MPH feet Rate Location/Type
07:08AM 42.9500 -71.4167 273° West 146 168 1,200  Level KA90
07:09AM 42.9667 -71.4000 36° Northeast 143 165 2,500 1,860 Climbing KA90
07:10AM 42.9412 -71.8471 283° West  Level FlightAware Approximate
07:10AM 43.0086 -71.4122 348° North 167 192 3,700  Level Boston Center
07:11AM 42.9500 -71.9847 270° West  Level FlightAware Approximate
07:11AM 43.0444 -71.4797 306° West 192 221 5,600  Level Boston Center
07:12AM 42.9501 -72.1236 270° West  Level FlightAware Approximate
07:12AM 43.0972 -71.5728 308° West 259 298 8,900  Level Boston Center
07:13AM 42.9520 -72.2625 273° West  Level FlightAware Approximate
07:13AM 43.1417 -71.6547 307° West 291 335 10,400  Level Boston Center
07:14AM 42.9579 -72.4012 273° West  Level FlightAware Approximate
07:14AM 43.1531 -71.7856 277° West 320 368 13,000  Level Boston Center
07:15AM 43.1411 -71.9022 262° West 336 387 15,000 2,220 Climbing Boston Center
07:16AM 43.1272 -72.0644 263° West 355 409 18,000 2,280 Climbing Boston Center
07:17AM 43.1128 -72.1983 262° West 360 414 19,600 960 Climbing Boston Center
07:18AM 43.1047 -72.3350 265° West 360 414 20,000 180 Climbing Boston Center
07:19AM 43.0944 -72.4686 264° West 360 414 20,000  Level Boston Center
07:20AM 43.0797 -72.6050 262° West 365 420 20,000  Level Boston Center
07:21AM 43.0544 -72.7583 257° West 378 435 20,000  Level Boston Center
07:22AM 43.0394 -72.8944 261° West 378 435 20,000  Level Boston Center
07:23AM 43.0303 -73.0253 265° West 373 429 20,000  Level Boston Center
07:24AM 43.0172 -73.1614 263° West 373 429 20,000  Level Boston Center
07:25AM 42.9994 -73.3172 261° West 373 429 20,000  Level Boston Center
07:26AM 42.9525 -73.4244 239° Southwest 366 421 20,000  Level Boston Center
07:27AM 42.8933 -73.5339 234° Southwest 366 421 20,000  Level Boston Center
07:28AM 42.8317 -73.6575 236° Southwest 366 421 20,000  Level Boston Center
07:29AM 42.7742 -73.7525 231° Southwest 371 427 20,000  Level Boston Center
07:30AM 42.7058 -73.8894 236° Southwest 366 421 20,000  Level Boston Center
07:31AM 42.6503 -74.0011 236° Southwest 371 427 20,000  Level Boston Center
07:32AM 42.5922 -74.1294 238° Southwest 376 433 20,000  Level Boston Center
07:33AM 42.5447 -74.2239 236° Southwest 371 427 20,000  Level Boston Center
07:34AM 42.4781 -74.3600 236° Southwest 371 427 20,000  Level Boston Center
07:35AM 42.4261 -74.4597 235° Southwest 371 427 20,000  Level Boston Center
07:36AM 42.3697 -74.5786 237° Southwest 371 427 20,000  Level Boston Center
07:37AM 42.3114 -74.6947 236° Southwest 371 427 20,000  Level Boston Center
07:39AM 42.2031 -74.9058 235° Southwest 358 412 20,000  Level New York Center
07:40AM 42.1375 -74.9967 226° Southwest 368 423 20,000 -60 Level New York Center
07:41AM 42.0475 -75.0661 210° Southwest 368 423 19,900 -540 Descending New York Center
07:42AM 41.9531 -75.1467 212° Southwest 373 429 19,000 -480 Descending New York Center
07:43AM 41.8736 -75.2108 211° Southwest 373 429 19,000  Level New York Center
07:44AM 41.7900 -75.2778 211° Southwest 373 429 19,000 -660 Level New York Center
07:45AM 41.6953 -75.3547 211° Southwest 373 429 17,700 -1,860 Descending New York Center
07:46AM 41.6094 -75.4236 211° Southwest 373 429 15,400 -2,040 Descending New York Center
07:47AM 41.5278 -75.4872 210° Southwest 361 415 13,700 -1,740 Descending New York Center
07:48AM 41.4567 -75.5458 212° Southwest 350 403 12,000 -900 Descending New York Center
07:49AM 41.3686 -75.6142 210° Southwest 350 403 12,000  Level New York Center
07:50AM 41.2933 -75.6722 210° Southwest 350 403 12,000  Level New York Center
07:51AM 41.1947 -75.6900 188° South 319 367 12,000  Level New York Center
07:52AM 41.1008 -75.6886 179° South 333 383 12,000  Level New York Center
07:53AM 41.0156 -75.6881 180° South 339 390 12,000  Level New York Center
07:54AM 40.9114 -75.6861 179° South 344 396 12,000  Level New York Center
07:55AM 40.8175 -75.6875 181° South 344 396 12,000  Level New York Center
07:56AM 40.7300 -75.6867 180° South 344 396 12,000  Level New York Center
07:57AM 40.6283 -75.6819 178° South 344 396 12,000  Level New York Center
07:58AM 40.5461 -75.6181 149° Southeast 342 394 12,000  Level FAA TRACON SMA TRACON (SMA)
07:58AM 40.5258 -75.5778 124° Southeast 348 400 12,000 -360 Level FAA TRACON SMA TRACON (SMA)
07:58AM 40.5097 -75.5461 124° Southeast 346 398 11,800 -1,200 Descending FAA TRACON SMA TRACON (SMA)
07:59AM 40.4925 -75.5128 124° Southeast 344 396 11,200 -1,800 Descending FAA TRACON SMA TRACON (SMA)
07:59AM 40.4764 -75.4817 124° Southeast 339 390 10,600 -1,680 Descending FAA TRACON SMA TRACON (SMA)
07:59AM 40.4564 -75.4458 126° Southeast 308 354 10,100 -900 Descending FAA TRACON SMA TRACON (SMA)
08:00AM 40.4361 -75.4247 142° Southeast 301 346 10,000 -600 Descending FAA TRACON SMA TRACON (SMA)
08:00AM 40.4081 -75.4092 157° South 282 325 9,700 -900 Descending FAA TRACON SMA TRACON (SMA)
08:00AM 40.3858 -75.3944 153° Southeast 284 327 9,400 -1,080 Descending FAA TRACON SMA TRACON (SMA)
08:01AM 40.3642 -75.3817 156° South 280 322 9,000 -1,380 Descending FAA TRACON SMA TRACON (SMA)
08:01AM 40.3372 -75.3661 156° South 276 318 8,500 -1,260 Descending FAA TRACON SMA TRACON (SMA)
08:01AM 40.3167 -75.3542 156° South 267 307 8,200 -780 Descending FAA TRACON SMA TRACON (SMA)
08:02AM 40.2967 -75.3425 156° South 258 297 8,000 -300 Descending FAA TRACON SMA TRACON (SMA)
08:02AM 40.2786 -75.3319 156° South 242 278 8,000  Level FAA TRACON SMA TRACON (SMA)
08:02AM 40.2542 -75.3339 183° South 238 274 8,000  Level FAA TRACON SMA TRACON (SMA)
08:03AM 40.2400 -75.3517 224° Southwest 235 270 8,000  Level FAA TRACON SMA TRACON (SMA)
08:03AM 40.2264 -75.3714 228° Southwest 235 270 8,000 -780 Level FAA TRACON SMA TRACON (SMA)
08:03AM 40.2106 -75.3956 229° Southwest 230 265 7,500 -1,380 Descending FAA TRACON SMA TRACON (SMA)
08:04AM 40.1972 -75.4147 228° Southwest 229 264 7,100 -1,080 Descending FAA TRACON SMA TRACON (SMA)
08:04AM 40.1803 -75.4378 226° Southwest 229 264 6,800 -600 Descending FAA TRACON SMA TRACON (SMA)
08:04AM 40.1672 -75.4547 225° Southwest 224 258 6,700 -600 Descending FAA TRACON SMA TRACON (SMA)
08:05AM 40.1544 -75.4708 224° Southwest 212 244 6,400 -960 Descending FAA TRACON SMA TRACON (SMA)
08:05AM 40.1425 -75.4856 223° Southwest 194 223 6,100 -660 Descending FAA TRACON SMA TRACON (SMA)
08:05AM 40.1264 -75.5044 222° Southwest 194 223 6,000 -180 Descending FAA TRACON SMA TRACON (SMA)
08:06AM 40.1083 -75.5031 177° South 214 246 6,000  Level FAA TRACON SMA TRACON (SMA)
08:06AM 40.0922 -75.4817 135° Southeast 217 250 6,000  Level FAA TRACON SMA TRACON (SMA)
08:06AM 40.0833 -75.4597 118° Southeast 224 258 6,000  Level FAA TRACON SMA TRACON (SMA)
08:07AM 40.0747 -75.4386 118° Southeast 222 255 6,000  Level FAA TRACON SMA TRACON (SMA)
08:07AM 40.0583 -75.4175 135° Southeast 227 261 6,000  Level FAA TRACON SMA TRACON (SMA)
08:07AM 40.0400 -75.4111 165° South 212 244 6,000  Level FAA TRACON SMA TRACON (SMA)
08:08AM 40.0219 -75.4056 167° South 214 246 6,000  Level FAA TRACON SMA TRACON (SMA)
08:08AM 39.9992 -75.3992 168° South 215 247 6,000  Level FAA TRACON SMA TRACON (SMA)
08:08AM 39.9811 -75.3939 167° South 216 249 6,000  Level FAA TRACON SMA TRACON (SMA)
08:09AM 39.9631 -75.3883 167° South 216 249 6,000  Level FAA TRACON SMA TRACON (SMA)
08:09AM 39.9417 -75.3919 187° South 198 228 6,000  Level FAA TRACON SMA TRACON (SMA)
08:09AM 39.9294 -75.4081 225° Southwest 202 232 6,000  Level FAA TRACON SMA TRACON (SMA)
08:10AM 39.9242 -75.4283 251° West 198 228 6,000  Level FAA TRACON SMA TRACON (SMA)
08:10AM 39.9183 -75.4539 253° West 192 221 6,000  Level FAA TRACON SMA TRACON (SMA)
08:10AM 39.9139 -75.4731 253° West 193 222 6,000 -360 Level FAA TRACON SMA TRACON (SMA)
08:11AM 39.9094 -75.4933 254° West 187 215 5,800 -900 Descending FAA TRACON SMA TRACON (SMA)
08:11AM 39.9042 -75.5164 253° West 170 196 5,400 -1,200 Descending FAA TRACON SMA TRACON (SMA)
08:11AM 39.9006 -75.5344 255° West 170 196 5,000 -600 Descending FAA TRACON SMA TRACON (SMA)
08:12AM 39.8967 -75.5531 255° West 171 197 5,000  Level FAA TRACON SMA TRACON (SMA)
08:12AM 39.8917 -75.5761 254° West 172 198 5,000  Level FAA TRACON SMA TRACON (SMA)
08:12AM 39.8878 -75.5942 254° West 171 197 5,000  Level FAA TRACON SMA TRACON (SMA)
08:13AM 39.8842 -75.6131 256° West 172 198 5,000  Level FAA TRACON SMA TRACON (SMA)
08:13AM 39.8794 -75.6364 255° West 172 198 5,000 -300 Level FAA TRACON SMA TRACON (SMA)
08:13AM 39.8689 -75.6494 224° Southwest 197 227 4,800 -900 Descending FAA TRACON SMA TRACON (SMA)
08:14AM 39.8533 -75.6481 176° South 185 213 4,400 -1,080 Descending FAA TRACON SMA TRACON (SMA)
08:14AM 39.8347 -75.6422 166° South 178 205 4,100 -660 Descending FAA TRACON SMA TRACON (SMA)
08:14AM 39.8200 -75.6394 172° South 173 199 4,000 -180 Descending FAA TRACON SMA TRACON (SMA)
08:15AM 39.8050 -75.6361 170° South 177 204 4,000  Level FAA TRACON SMA TRACON (SMA)
08:15AM 39.7922 -75.6203 136° Southeast 168 193 4,000  Level FAA TRACON SMA TRACON (SMA)
08:15AM 39.7942 -75.6017 82° East 170 196 4,000  Level FAA TRACON SMA TRACON (SMA)
08:16AM 39.7972 -75.5861 76° East 174 200 4,000  Level FAA TRACON SMA TRACON (SMA)
08:16AM 39.8036 -75.5617 71° East 166 191 4,000  Level FAA TRACON SMA TRACON (SMA)
08:16AM 39.8067 -75.5431 78° East 169 194 4,000  Level FAA TRACON SMA TRACON (SMA)
08:17AM 39.8094 -75.5272 77° East 169 194 4,000 -480 Level FAA TRACON SMA TRACON (SMA)
08:17AM 39.8153 -75.5022 73° East 168 193 3,700 -780 Descending FAA TRACON SMA TRACON (SMA)
08:17AM 39.8186 -75.4842 76° East 166 191 3,500 -780 Descending FAA TRACON SMA TRACON (SMA)
08:18AM 39.8217 -75.4667 77° East 165 190 3,200 -1,080 Descending FAA TRACON SMA TRACON (SMA)
08:18AM 39.8267 -75.4447 73° East 163 188 2,800 -1,080 Descending FAA TRACON SMA TRACON (SMA)
08:18AM 39.8300 -75.4278 76° East 161 185 2,500 -780 Descending FAA TRACON SMA TRACON (SMA)
08:19AM 39.8331 -75.4139 74° East 159 183 2,300 -780 Descending FAA TRACON SMA TRACON (SMA)
08:19AM 39.8367 -75.3947 76° East 154 177 2,000 -900 Descending FAA TRACON SMA TRACON (SMA)